Time;durP1;ratioP1;P1;durP2;ratioP2;P2;SDS_P1;SDS_P2;PMS_P1;PMS_P2;Temp;Humidity;BMP_temperature;BMP_pressure;BME280_temperature;BME280_humidity;BME280_pressure;Samples;Min_cycle;Max_cycle;Signal;HPM_P1;HPM_P2
2021/03/22 00:00:41;;;;;;;23.73;21.42;;;;;;;;;;5056094;28;20649;-75
2021/03/22 00:03:09;;;;;;;22.10;20.30;;;;;;;;;;5057305;28;20193;-75
2021/03/22 00:05:35;;;;;;;22.65;20.27;;;;;;;;;;5058278;28;20205;-74
2021/03/22 00:08:02;;;;;;;24.80;21.42;;;;;;;;;;5057473;28;20222;-76
2021/03/22 00:10:31;;;;;;;21.42;19.98;;;;;;;;;;5058157;28;20187;-75
2021/03/22 00:12:59;;;;;;;22.40;20.08;;;;;;;;;;5056466;28;20628;-75
2021/03/22 00:15:27;;;;;;;22.52;20.70;;;;;;;;;;5056633;28;20664;-74
2021/03/22 00:17:54;;;;;;;22.35;20.45;;;;;;;;;;5058041;28;20251;-74
2021/03/22 00:20:22;;;;;;;24.70;20.10;;;;;;;;;;5059889;28;20594;-75
2021/03/22 00:22:49;;;;;;;23.30;21.05;;;;;;;;;;5059586;28;20197;-75
2021/03/22 00:25:17;;;;;;;21.90;20.10;;;;;;;;;;5058537;28;20551;-75
2021/03/22 00:27:44;;;;;;;22.48;20.40;;;;;;;;;;5059116;28;20217;-75
2021/03/22 00:30:13;;;;;;;23.05;21.13;;;;;;;;;;5057741;28;20190;-75
2021/03/22 00:32:41;;;;;;;24.20;21.60;;;;;;;;;;5059061;28;20208;-75
2021/03/22 00:35:10;;;;;;;23.73;21.02;;;;;;;;;;5059463;28;20253;-73
2021/03/22 00:37:39;;;;;;;22.33;20.48;;;;;;;;;;5059464;28;20197;-74
2021/03/22 00:40:09;;;;;;;25.75;21.25;;;;;;;;;;5058944;28;20525;-74
2021/03/22 00:42:36;;;;;;;21.85;20.15;;;;;;;;;;5059501;28;20210;-75
2021/03/22 00:45:04;;;;;;;21.42;19.63;;;;;;;;;;5059447;28;20197;-75
2021/03/22 00:47:32;;;;;;;22.98;20.52;;;;;;;;;;5059331;28;20262;-74
2021/03/22 00:50:02;;;;;;;25.13;21.73;;;;;;;;;;5060901;28;20197;-75
2021/03/22 00:52:28;;;;;;;21.77;20.10;;;;;;;;;;5057333;28;20205;-75
2021/03/22 00:54:57;;;;;;;22.77;20.63;;;;;;;;;;5056892;28;20279;-75
2021/03/22 00:57:26;;;;;;;23.63;21.23;;;;;;;;;;5055382;28;20194;-75
2021/03/22 00:59:52;;;;;;;22.45;20.33;;;;;;;;;;5057054;28;20190;-74
2021/03/22 01:02:20;;;;;;;22.83;20.70;;;;;;;;;;5058271;28;20206;-75
2021/03/22 01:04:47;;;;;;;23.33;21.10;;;;;;;;;;5057472;28;20294;-75
2021/03/22 01:07:14;;;;;;;21.95;19.88;;;;;;;;;;5058242;28;20550;-75
2021/03/22 01:09:42;;;;;;;22.58;20.17;;;;;;;;;;5057830;28;20208;-75
2021/03/22 01:12:11;;;;;;;22.65;20.48;;;;;;;;;;5057652;28;20194;-75
2021/03/22 01:14:38;;;;;;;25.85;19.98;;;;;;;;;;5057566;28;20218;-74
2021/03/22 01:17:05;;;;;;;23.25;20.80;;;;;;;;;;5057908;28;20244;-75
2021/03/22 01:19:36;;;;;;;21.85;19.88;;;;;;;;;;5061035;28;20254;-74
2021/03/22 01:22:06;;;;;;;21.98;19.83;;;;;;;;;;5059296;28;20194;-74
2021/03/22 01:24:33;;;;;;;21.40;19.48;;;;;;;;;;5057849;28;20201;-74
2021/03/22 01:27:03;;;;;;;22.00;20.10;;;;;;;;;;5057099;28;20287;-74
2021/03/22 01:29:33;;;;;;;23.42;20.90;;;;;;;;;;5057320;28;20201;-74
2021/03/22 01:32:01;;;;;;;22.08;20.08;;;;;;;;;;5057111;28;20281;-75
2021/03/22 01:34:29;;;;;;;21.50;19.48;;;;;;;;;;5056922;28;20289;-74
2021/03/22 01:36:57;;;;;;;22.02;19.83;;;;;;;;;;5056947;28;20199;-74
2021/03/22 01:39:28;;;;;;;21.98;20.25;;;;;;;;;;5056601;28;20190;-73
2021/03/22 01:42:10;;;;;;;23.15;20.83;;;;;;;;;;5056592;28;20193;-74
2021/03/22 01:44:39;;;;;;;23.02;20.35;;;;;;;;;;5057137;28;20640;-74
2021/03/22 01:47:08;;;;;;;22.48;20.05;;;;;;;;;;5056795;28;20214;-74
2021/03/22 01:49:39;;;;;;;21.40;19.35;;;;;;;;;;5056815;28;20635;-73
2021/03/22 01:52:18;;;;;;;25.92;20.17;;;;;;;;;;5059923;28;20224;-73
2021/03/22 01:54:49;;;;;;;21.38;19.65;;;;;;;;;;5057000;28;20710;-74
2021/03/22 01:57:25;;;;;;;28.23;21.88;;;;;;;;;;5057343;28;20208;-74
2021/03/22 01:59:53;;;;;;;21.88;19.80;;;;;;;;;;5056169;28;20199;-74
2021/03/22 02:02:20;;;;;;;28.10;20.70;;;;;;;;;;5055610;28;20191;-74
2021/03/22 02:04:47;;;;;;;21.45;19.73;;;;;;;;;;5055298;28;20537;-74
2021/03/22 02:07:16;;;;;;;22.45;20.08;;;;;;;;;;5055368;28;20216;-74
2021/03/22 02:09:43;;;;;;;22.45;20.50;;;;;;;;;;5055488;28;20549;-74
2021/03/22 02:12:17;;;;;;;24.17;21.38;;;;;;;;;;5055624;28;20193;-74
2021/03/22 02:14:44;;;;;;;22.05;19.98;;;;;;;;;;5055776;28;20205;-75
2021/03/22 02:17:15;;;;;;;25.73;21.30;;;;;;;;;;5055607;28;20244;-74
2021/03/22 02:19:57;;;;;;;22.48;20.52;;;;;;;;;;5055010;28;20210;-74
2021/03/22 02:22:42;;;;;;;22.10;19.85;;;;;;;;;;5056311;28;20193;-74
2021/03/22 02:25:13;;;;;;;21.60;19.77;;;;;;;;;;5056586;28;20629;-74
2021/03/22 02:28:01;;;;;;;22.77;20.65;;;;;;;;;;5056017;28;20214;-74
2021/03/22 02:30:46;;;;;;;22.27;19.90;;;;;;;;;;5057130;28;20194;-74
2021/03/22 02:33:43;;;;;;;21.48;19.55;;;;;;;;;;5057136;28;20193;-74
2021/03/22 02:36:12;;;;;;;22.75;20.55;;;;;;;;;;4994488;28;20208;-74
2021/03/22 02:38:43;;;;;;;23.30;20.88;;;;;;;;;;4993544;28;20207;-74
2021/03/22 02:41:13;;;;;;;21.88;20.33;;;;;;;;;;4993167;28;20193;-74
2021/03/22 02:43:40;;;;;;;22.42;20.13;;;;;;;;;;4993236;28;20209;-74
2021/03/22 02:46:08;;;;;;;21.55;19.58;;;;;;;;;;4993300;28;20243;-74
2021/03/22 02:48:35;;;;;;;23.98;21.27;;;;;;;;;;4993239;28;20215;-74
2021/03/22 02:51:04;;;;;;;21.25;19.25;;;;;;;;;;4993651;28;20212;-74
2021/03/22 02:53:40;;;;;;;22.75;20.55;;;;;;;;;;4993373;28;20287;-74
2021/03/22 02:56:12;;;;;;;23.85;21.85;;;;;;;;;;4993318;28;20550;-74
2021/03/22 02:58:44;;;;;;;22.85;20.75;;;;;;;;;;4993196;28;20198;-74
2021/03/22 03:01:13;;;;;;;21.92;19.73;;;;;;;;;;4993291;28;20191;-76
2021/03/22 03:03:40;;;;;;;21.42;19.73;;;;;;;;;;4993118;28;20258;-74
2021/03/22 03:06:08;;;;;;;22.33;19.80;;;;;;;;;;4992928;28;20192;-74
2021/03/22 03:08:37;;;;;;;25.48;21.48;;;;;;;;;;4993465;28;20282;-75
2021/03/22 03:11:05;;;;;;;26.75;21.02;;;;;;;;;;5045286;28;20272;-74
2021/03/22 03:13:32;;;;;;;26.27;20.00;;;;;;;;;;5055091;28;20195;-74
2021/03/22 03:15:59;;;;;;;26.55;21.73;;;;;;;;;;5054020;28;20244;-74
2021/03/22 03:18:26;;;;;;;22.05;19.77;;;;;;;;;;5054344;28;20568;-75
2021/03/22 03:20:53;;;;;;;23.10;20.95;;;;;;;;;;5054264;28;20194;-74
2021/03/22 03:23:20;;;;;;;22.75;20.63;;;;;;;;;;5054011;28;20194;-74
2021/03/22 03:25:47;;;;;;;27.33;21.40;;;;;;;;;;5054280;28;20206;-74
2021/03/22 03:28:14;;;;;;;23.45;21.38;;;;;;;;;;5053710;28;20239;-76
2021/03/22 03:30:41;;;;;;;25.60;21.05;;;;;;;;;;5053877;28;20571;-75
2021/03/22 03:33:09;;;;;;;22.63;20.30;;;;;;;;;;5053951;28;20190;-74
2021/03/22 03:35:37;;;;;;;22.50;20.52;;;;;;;;;;5054165;28;20192;-74
2021/03/22 03:38:04;;;;;;;26.50;20.65;;;;;;;;;;5053884;28;20190;-74
2021/03/22 03:40:32;;;;;;;32.95;21.52;;;;;;;;;;5054049;28;20211;-74
2021/03/22 03:42:59;;;;;;;23.70;21.40;;;;;;;;;;5054555;28;20554;-75
2021/03/22 03:45:29;;;;;;;22.75;20.48;;;;;;;;;;5053950;28;20195;-74
2021/03/22 03:47:56;;;;;;;21.98;19.73;;;;;;;;;;5054863;28;20320;-74
2021/03/22 03:50:25;;;;;;;25.77;20.33;;;;;;;;;;5053208;28;20544;-75
2021/03/22 03:52:51;;;;;;;24.10;21.55;;;;;;;;;;5056648;28;20644;-76
2021/03/22 03:55:19;;;;;;;23.30;20.85;;;;;;;;;;5058483;28;20229;-75
2021/03/22 03:57:46;;;;;;;22.05;20.05;;;;;;;;;;5056810;28;20205;-76
2021/03/22 04:00:16;;;;;;;23.00;20.73;;;;;;;;;;5057850;28;20201;-74
2021/03/22 04:02:44;;;;;;;21.85;20.05;;;;;;;;;;5057763;28;20189;-75
2021/03/22 04:05:11;;;;;;;21.58;19.92;;;;;;;;;;5057554;28;20196;-74
2021/03/22 04:07:38;;;;;;;24.45;22.40;;;;;;;;;;5057324;28;20680;-74
2021/03/22 04:10:05;;;;;;;22.50;20.25;;;;;;;;;;5057696;28;20185;-75
2021/03/22 04:12:32;;;;;;;22.70;20.83;;;;;;;;;;5057355;28;20601;-74
2021/03/22 04:14:59;;;;;;;21.75;20.20;;;;;;;;;;5057756;28;20203;-75
2021/03/22 04:17:26;;;;;;;22.10;20.17;;;;;;;;;;5057054;28;20236;-75
2021/03/22 04:19:53;;;;;;;21.85;20.02;;;;;;;;;;5057495;28;20551;-74
2021/03/22 04:22:20;;;;;;;21.58;19.73;;;;;;;;;;5058554;28;20201;-75
2021/03/22 04:24:49;;;;;;;23.65;21.27;;;;;;;;;;5057388;28;20206;-74
2021/03/22 04:27:16;;;;;;;23.38;20.88;;;;;;;;;;5057322;28;20190;-74
2021/03/22 04:29:43;;;;;;;22.90;20.95;;;;;;;;;;5057039;28;20248;-74
2021/03/22 04:32:10;;;;;;;21.75;19.60;;;;;;;;;;5057066;28;20202;-75
2021/03/22 04:34:37;;;;;;;23.10;21.23;;;;;;;;;;5057090;28;20220;-75
2021/03/22 04:37:06;;;;;;;24.50;21.52;;;;;;;;;;5056908;28;20259;-75
2021/03/22 04:39:32;;;;;;;24.40;22.25;;;;;;;;;;5057620;28;20191;-74
2021/03/22 04:42:01;;;;;;;26.02;23.02;;;;;;;;;;5056863;28;20187;-74
2021/03/22 04:44:28;;;;;;;26.77;22.13;;;;;;;;;;5057427;28;20198;-75
2021/03/22 04:46:55;;;;;;;23.63;21.60;;;;;;;;;;5056620;28;20209;-75
2021/03/22 04:49:22;;;;;;;23.58;21.20;;;;;;;;;;5055349;28;20702;-74
2021/03/22 04:51:48;;;;;;;31.85;23.60;;;;;;;;;;5056473;28;20223;-75
2021/03/22 04:54:17;;;;;;;26.88;24.17;;;;;;;;;;5056473;28;20248;-75
2021/03/22 04:56:44;;;;;;;25.55;23.35;;;;;;;;;;5056256;28;20674;-74
2021/03/22 04:59:10;;;;;;;28.95;23.48;;;;;;;;;;5057035;28;20186;-75
2021/03/22 05:01:37;;;;;;;27.30;24.15;;;;;;;;;;5056287;28;20201;-75
2021/03/22 05:04:04;;;;;;;25.02;22.73;;;;;;;;;;5055703;28;20186;-75
2021/03/22 05:06:31;;;;;;;35.45;25.67;;;;;;;;;;5056641;28;20263;-74
2021/03/22 05:08:58;;;;;;;23.83;21.33;;;;;;;;;;5056162;28;20247;-75
2021/03/22 05:11:26;;;;;;;25.90;23.25;;;;;;;;;;5056133;28;20194;-74
2021/03/22 05:13:54;;;;;;;27.20;22.23;;;;;;;;;;5056259;28;20206;-75
2021/03/22 05:16:21;;;;;;;27.13;22.90;;;;;;;;;;5054752;28;20278;-75
2021/03/22 05:18:48;;;;;;;25.52;22.80;;;;;;;;;;5056310;28;20193;-75
2021/03/22 05:21:15;;;;;;;25.27;22.15;;;;;;;;;;5056213;28;20196;-74
2021/03/22 05:23:42;;;;;;;25.50;22.63;;;;;;;;;;5056450;28;20194;-75
2021/03/22 05:26:10;;;;;;;25.30;22.65;;;;;;;;;;5054861;28;20190;-75
2021/03/22 05:28:40;;;;;;;25.20;22.73;;;;;;;;;;5055774;28;20214;-74
2021/03/22 05:31:07;;;;;;;27.83;24.85;;;;;;;;;;5056093;28;20297;-74
2021/03/22 05:33:34;;;;;;;25.88;23.13;;;;;;;;;;5056128;28;20629;-74
2021/03/22 05:36:01;;;;;;;29.08;24.55;;;;;;;;;;5054971;28;20203;-74
2021/03/22 05:38:29;;;;;;;32.92;24.42;;;;;;;;;;5055555;28;20640;-74
2021/03/22 05:40:57;;;;;;;27.27;24.42;;;;;;;;;;5055834;28;20293;-74
2021/03/22 05:43:38;;;;;;;24.67;22.30;;;;;;;;;;5055783;28;20256;-74
2021/03/22 05:46:08;;;;;;;25.60;23.08;;;;;;;;;;5043536;28;20202;-74
2021/03/22 05:48:53;;;;;;;25.83;23.20;;;;;;;;;;5055039;28;20233;-74
2021/03/22 05:51:40;;;;;;;26.33;24.02;;;;;;;;;;5045538;28;20206;-74
2021/03/22 05:54:16;;;;;;;25.88;23.17;;;;;;;;;;5046735;28;20204;-74
2021/03/22 05:56:46;;;;;;;25.65;22.55;;;;;;;;;;5055353;28;20284;-74
2021/03/22 05:59:19;;;;;;;25.08;22.55;;;;;;;;;;5055573;28;20194;-74
2021/03/22 06:01:48;;;;;;;27.45;23.40;;;;;;;;;;5055573;28;20193;-74
2021/03/22 06:04:24;;;;;;;29.90;24.65;;;;;;;;;;5055211;28;20636;-74
2021/03/22 06:06:51;;;;;;;30.98;25.08;;;;;;;;;;5055121;28;20200;-74
2021/03/22 06:09:31;;;;;;;26.42;23.67;;;;;;;;;;5055277;28;20316;-74
2021/03/22 06:12:00;;;;;;;31.92;23.48;;;;;;;;;;5054825;28;20655;-74
2021/03/22 06:14:32;;;;;;;32.92;23.25;;;;;;;;;;5054378;28;20232;-74
2021/03/22 06:17:01;;;;;;;26.38;23.02;;;;;;;;;;5055165;28;20239;-73
2021/03/22 06:19:29;;;;;;;27.08;23.90;;;;;;;;;;5055258;28;20526;-74
2021/03/22 06:21:55;;;;;;;31.25;23.98;;;;;;;;;;5055090;28;20528;-74
2021/03/22 06:24:23;;;;;;;30.08;24.55;;;;;;;;;;5055569;28;20197;-74
2021/03/22 06:26:51;;;;;;;29.63;24.85;;;;;;;;;;5054954;28;20198;-74
2021/03/22 06:29:21;;;;;;;26.35;23.65;;;;;;;;;;5054635;28;20230;-74
2021/03/22 06:31:49;;;;;;;26.67;24.08;;;;;;;;;;5055083;28;20571;-74
2021/03/22 06:34:20;;;;;;;30.23;23.67;;;;;;;;;;5054771;28;20197;-73
2021/03/22 06:36:48;;;;;;;26.40;23.60;;;;;;;;;;5055089;28;20190;-74
2021/03/22 06:39:21;;;;;;;28.83;24.88;;;;;;;;;;5055008;28;20189;-74
2021/03/22 06:41:48;;;;;;;25.27;22.60;;;;;;;;;;5055103;28;20193;-74
2021/03/22 06:44:16;;;;;;;34.53;24.17;;;;;;;;;;5054813;28;20239;-74
2021/03/22 06:46:57;;;;;;;28.80;22.60;;;;;;;;;;5036903;28;20652;-73
2021/03/22 06:49:27;;;;;;;30.27;23.02;;;;;;;;;;5054401;28;20237;-74
2021/03/22 06:51:58;;;;;;;24.60;22.02;;;;;;;;;;5054926;28;20190;-74
2021/03/22 06:54:29;;;;;;;28.08;23.88;;;;;;;;;;5054798;28;20190;-74
2021/03/22 06:57:02;;;;;;;25.85;23.45;;;;;;;;;;5054186;28;20202;-77
2021/03/22 06:59:30;;;;;;;27.55;23.48;;;;;;;;;;5054806;28;20324;-79
2021/03/22 07:01:56;;;;;;;25.13;22.63;;;;;;;;;;5054694;28;20209;-81
2021/03/22 07:04:27;;;;;;;24.73;22.27;;;;;;;;;;5056241;28;20589;-80
2021/03/22 07:07:08;;;;;;;23.92;21.58;;;;;;;;;;5057358;28;20190;-81
2021/03/22 07:09:36;;;;;;;23.85;21.83;;;;;;;;;;5062350;28;20232;-82
2021/03/22 07:12:21;;;;;;;25.85;23.45;;;;;;;;;;5057645;28;20226;-74
2021/03/22 07:14:47;;;;;;;23.77;21.45;;;;;;;;;;5055773;28;20695;-74
2021/03/22 07:17:21;;;;;;;26.10;23.35;;;;;;;;;;5055197;28;20238;-74
2021/03/22 07:20:13;;;;;;;23.20;21.20;;;;;;;;;;5055474;28;20201;-75
2021/03/22 07:22:40;;;;;;;23.95;21.55;;;;;;;;;;5055538;28;20491;-74
2021/03/22 07:25:10;;;;;;;22.08;20.00;;;;;;;;;;5055078;28;20636;-75
2021/03/22 07:27:40;;;;;;;24.77;22.45;;;;;;;;;;5054737;28;20215;-75
2021/03/22 07:30:28;;;;;;;57.65;51.80;;;;;;;;;;5055751;28;20186;-75
2021/03/22 07:33:12;;;;;;;23.63;21.48;;;;;;;;;;5055315;28;20191;-74
2021/03/22 07:35:59;;;;;;;23.73;21.63;;;;;;;;;;5054297;28;20196;-74
2021/03/22 07:38:41;;;;;;;22.48;20.48;;;;;;;;;;5049335;28;20213;-78
2021/03/22 07:41:18;;;;;;;23.00;21.27;;;;;;;;;;5053865;28;20202;-77
2021/03/22 07:43:54;;;;;;;22.33;20.67;;;;;;;;;;5055357;28;20190;-73
2021/03/22 07:46:27;;;;;;;22.80;20.60;;;;;;;;;;5054552;28;20244;-74
2021/03/22 07:49:04;;;;;;;25.10;21.70;;;;;;;;;;5053402;28;20264;-74
2021/03/22 07:51:51;;;;;;;23.85;21.38;;;;;;;;;;5053585;28;20197;-74
2021/03/22 07:54:26;;;;;;;22.35;20.50;;;;;;;;;;5051649;28;20201;-74
2021/03/22 07:56:58;;;;;;;22.80;21.02;;;;;;;;;;5053588;28;20190;-75
2021/03/22 07:59:28;;;;;;;24.00;21.70;;;;;;;;;;5053578;28;20195;-74
2021/03/22 08:02:01;;;;;;;21.60;20.02;;;;;;;;;;5053453;28;20205;-74
2021/03/22 08:04:48;;;;;;;21.60;19.95;;;;;;;;;;5053269;28;20264;-74
2021/03/22 08:07:34;;;;;;;23.48;21.17;;;;;;;;;;5048520;28;20205;-74
2021/03/22 08:10:08;;;;;;;21.83;19.90;;;;;;;;;;5053540;28;20277;-74
2021/03/22 08:12:40;;;;;;;21.10;19.77;;;;;;;;;;5053174;28;20630;-73
2021/03/22 08:15:17;;;;;;;21.95;20.02;;;;;;;;;;5052039;28;20197;-74
2021/03/22 08:17:52;;;;;;;21.45;19.83;;;;;;;;;;5052970;28;20248;-72
2021/03/22 08:20:21;;;;;;;22.20;20.70;;;;;;;;;;5053458;28;20201;-73
2021/03/22 08:22:51;;;;;;;20.17;18.92;;;;;;;;;;5052039;28;20571;-73
2021/03/22 08:25:30;;;;;;;21.17;19.65;;;;;;;;;;5053423;28;20586;-72
2021/03/22 08:28:01;;;;;;;20.45;18.95;;;;;;;;;;5053011;28;20214;-73
2021/03/22 08:30:34;;;;;;;21.77;20.13;;;;;;;;;;5052232;28;20200;-74
2021/03/22 08:33:03;;;;;;;22.08;20.17;;;;;;;;;;5052942;28;20191;-74
2021/03/22 08:35:34;;;;;;;20.83;19.50;;;;;;;;;;5053247;28;20601;-74
2021/03/22 08:38:03;;;;;;;21.42;19.73;;;;;;;;;;5053293;28;20533;-74
2021/03/22 08:40:38;;;;;;;20.33;19.02;;;;;;;;;;5056899;28;20202;-73
2021/03/22 08:43:08;;;;;;;19.80;18.50;;;;;;;;;;5056518;28;20679;-74
2021/03/22 08:45:38;;;;;;;20.30;19.02;;;;;;;;;;5056687;28;20235;-74
2021/03/22 08:48:09;;;;;;;24.25;22.42;;;;;;;;;;5056470;28;20681;-73
2021/03/22 08:50:37;;;;;;;68.65;38.00;;;;;;;;;;5056784;28;20189;-74
2021/03/22 08:53:05;;;;;;;20.67;18.92;;;;;;;;;;5056685;28;20196;-73
2021/03/22 08:55:46;;;;;;;22.10;20.65;;;;;;;;;;5056747;28;20196;-74
2021/03/22 08:58:20;;;;;;;21.85;20.15;;;;;;;;;;5056116;28;20207;-74
2021/03/22 09:00:47;;;;;;;20.02;18.70;;;;;;;;;;5056299;28;20201;-74
2021/03/22 09:03:28;;;;;;;19.90;18.70;;;;;;;;;;5056808;28;20275;-73
2021/03/22 09:06:10;;;;;;;20.38;18.98;;;;;;;;;;5056230;28;20191;-74
2021/03/22 09:08:38;;;;;;;19.55;18.38;;;;;;;;;;5056539;28;20234;-74
2021/03/22 09:11:15;;;;;;;20.10;18.63;;;;;;;;;;5056568;28;20196;-73
2021/03/22 09:13:51;;;;;;;19.60;18.40;;;;;;;;;;5056329;28;20660;-73
2021/03/22 09:16:39;;;;;;;20.67;19.40;;;;;;;;;;5055779;28;20696;-73
2021/03/22 09:19:07;;;;;;;19.70;18.50;;;;;;;;;;5055838;28;20193;-74
2021/03/22 09:21:34;;;;;;;19.50;18.30;;;;;;;;;;5056190;28;20187;-73
2021/03/22 09:24:01;;;;;;;21.10;19.80;;;;;;;;;;5054773;28;20223;-73
2021/03/22 09:26:47;;;;;;;19.85;18.65;;;;;;;;;;5054641;28;20436;-74
2021/03/22 09:29:34;;;;;;;19.55;18.45;;;;;;;;;;5055814;28;20219;-77
2021/03/22 09:32:02;;;;;;;19.37;18.27;;;;;;;;;;5055862;28;20189;-73
2021/03/22 09:34:34;;;;;;;20.02;18.58;;;;;;;;;;5055748;28;20437;-75
2021/03/22 09:37:21;;;;;;;19.40;18.40;;;;;;;;;;5054570;28;20246;-72
2021/03/22 09:39:49;;;;;;;18.88;17.77;;;;;;;;;;5055403;28;20480;-73
2021/03/22 09:42:18;;;;;;;18.67;17.77;;;;;;;;;;5055342;28;20194;-73
2021/03/22 09:45:03;;;;;;;18.85;17.85;;;;;;;;;;5055803;28;20215;-73
2021/03/22 09:47:32;;;;;;;19.10;18.00;;;;;;;;;;5055387;28;20200;-73
2021/03/22 09:50:07;;;;;;;19.75;18.65;;;;;;;;;;5053781;28;20449;-72
2021/03/22 09:52:35;;;;;;;18.27;17.17;;;;;;;;;;5055485;28;20223;-73
2021/03/22 09:55:02;;;;;;;20.03;18.83;;;;;;;;;;5054039;28;20544;-73
2021/03/22 09:57:50;;;;;;;19.57;18.47;;;;;;;;;;5055443;28;20424;-72
2021/03/22 10:00:49;;;;;;;20.02;18.70;;;;;;;;;;5055174;28;20433;-72
2021/03/22 10:03:32;;;;;;;19.23;18.23;;;;;;;;;;5055447;28;20199;-79
2021/03/22 10:06:00;;;;;;;20.27;18.97;;;;;;;;;;5055042;28;20550;-71
2021/03/22 10:08:30;;;;;;;20.20;18.75;;;;;;;;;;5053836;28;20484;-71
2021/03/22 10:10:57;;;;;;;20.13;19.02;;;;;;;;;;5055060;28;20196;-71
2021/03/22 10:13:28;;;;;;;19.05;17.95;;;;;;;;;;5055026;28;20191;-72
2021/03/22 10:15:56;;;;;;;19.35;17.85;;;;;;;;;;5054898;28;20184;-73
2021/03/22 10:18:25;;;;;;;19.20;18.00;;;;;;;;;;5054972;28;20206;-73
2021/03/22 10:21:02;;;;;;;19.58;18.48;;;;;;;;;;5055463;28;21021;-76
2021/03/22 10:23:31;;;;;;;19.33;18.30;;;;;;;;;;5057774;28;20642;-82
2021/03/22 10:26:03;;;;;;;18.77;17.67;;;;;;;;;;5056986;28;20422;-77
2021/03/22 10:28:30;;;;;;;19.55;18.33;;;;;;;;;;5058065;28;20457;-77
2021/03/22 10:31:01;;;;;;;21.10;19.80;;;;;;;;;;5059176;28;20245;-80
2021/03/22 10:33:28;;;;;;;19.10;18.10;;;;;;;;;;5056950;28;20446;-80
2021/03/22 10:35:57;;;;;;;18.80;17.80;;;;;;;;;;5055767;28;20792;-79
2021/03/22 10:38:26;;;;;;;19.25;18.25;;;;;;;;;;5055906;28;20932;-80
2021/03/22 10:40:53;;;;;;;19.30;18.30;;;;;;;;;;5055543;28;20195;-74
2021/03/22 10:43:26;;;;;;;18.40;17.50;;;;;;;;;;5053325;28;20672;-73
2021/03/22 10:45:53;;;;;;;18.90;17.73;;;;;;;;;;5054676;28;20924;-78
2021/03/22 10:48:25;;;;;;;19.80;18.60;;;;;;;;;;5055014;28;20230;-81
2021/03/22 10:51:04;;;;;;;19.13;17.93;;;;;;;;;;5054668;28;20455;-74
2021/03/22 10:53:31;;;;;;;18.40;17.50;;;;;;;;;;5054629;28;20437;-77
2021/03/22 10:56:14;;;;;;;18.00;17.10;;;;;;;;;;5055896;28;20915;-75
2021/03/22 10:58:40;;;;;;;19.03;18.03;;;;;;;;;;5054293;28;20416;-75
2021/03/22 11:01:08;;;;;;;19.03;18.03;;;;;;;;;;5053967;28;20410;-75
2021/03/22 11:03:36;;;;;;;19.63;18.53;;;;;;;;;;5053221;28;20442;-75
2021/03/22 11:06:11;;;;;;;20.17;19.07;;;;;;;;;;5054028;28;20415;-76
2021/03/22 11:08:39;;;;;;;19.97;18.80;;;;;;;;;;5054023;28;20463;-75
2021/03/22 11:11:08;;;;;;;20.27;19.17;;;;;;;;;;5054362;28;20425;-75
2021/03/22 11:13:36;;;;;;;20.00;18.90;;;;;;;;;;5054443;28;20458;-77
2021/03/22 11:16:05;;;;;;;20.07;18.97;;;;;;;;;;5054600;28;20902;-75
2021/03/22 11:18:32;;;;;;;63.80;57.30;;;;;;;;;;5053832;28;20495;-75
2021/03/22 11:21:00;;;;;;;19.30;18.30;;;;;;;;;;5054113;28;20417;-76
2021/03/22 11:23:40;;;;;;;19.87;18.77;;;;;;;;;;5053775;28;20430;-76
2021/03/22 11:26:13;;;;;;;19.60;18.53;;;;;;;;;;5053986;28;20415;-75
2021/03/22 11:28:40;;;;;;;19.37;18.27;;;;;;;;;;5053773;28;20445;-75
2021/03/22 11:31:09;;;;;;;20.30;19.20;;;;;;;;;;5054453;28;20404;-75
2021/03/22 11:33:38;;;;;;;19.60;18.53;;;;;;;;;;5051360;28;20453;-75
2021/03/22 11:36:09;;;;;;;19.90;18.90;;;;;;;;;;5053965;28;20438;-75
2021/03/22 11:38:44;;;;;;;19.80;18.70;;;;;;;;;;5053982;28;20431;-75
2021/03/22 11:41:24;;;;;;;20.90;19.77;;;;;;;;;;5053981;28;20423;-75
2021/03/22 11:44:01;;;;;;;20.80;19.80;;;;;;;;;;5054031;28;20408;-75
2021/03/22 11:46:28;;;;;;;20.05;18.95;;;;;;;;;;5054027;28;20443;-75
2021/03/22 11:48:54;;;;;;;20.20;19.10;;;;;;;;;;5053757;28;20216;-75
2021/03/22 11:51:21;;;;;;;20.08;18.98;;;;;;;;;;5053865;28;20249;-74
2021/03/22 11:53:59;;;;;;;20.07;19.07;;;;;;;;;;5053874;28;20191;-75
2021/03/22 11:56:28;;;;;;;20.58;19.48;;;;;;;;;;5057287;28;20416;-74
2021/03/22 11:59:07;;;;;;;20.50;19.30;;;;;;;;;;5053807;28;20195;-75
2021/03/22 12:01:34;;;;;;;19.88;18.88;;;;;;;;;;5054496;28;20199;-74
2021/03/22 12:04:17;;;;;;;21.08;19.77;;;;;;;;;;5053279;28;20207;-75
2021/03/22 12:06:54;;;;;;;20.53;19.40;;;;;;;;;;5053633;28;20676;-74
2021/03/22 12:09:22;;;;;;;20.63;19.52;;;;;;;;;;5053786;28;20517;-76
2021/03/22 12:11:51;;;;;;;20.30;19.10;;;;;;;;;;5054267;28;20546;-74
2021/03/22 12:14:18;;;;;;;20.60;19.50;;;;;;;;;;5057401;28;20445;-74
2021/03/22 12:16:45;;;;;;;21.47;20.27;;;;;;;;;;5057588;28;20488;-73
2021/03/22 12:19:16;;;;;;;21.20;19.90;;;;;;;;;;5057253;28;20438;-74
2021/03/22 12:21:43;;;;;;;20.47;19.27;;;;;;;;;;5057288;28;20403;-74
2021/03/22 12:24:13;;;;;;;20.73;19.43;;;;;;;;;;5057625;28;20528;-74
2021/03/22 12:26:41;;;;;;;20.03;19.03;;;;;;;;;;5057613;28;20415;-74
2021/03/22 12:29:08;;;;;;;20.90;19.73;;;;;;;;;;5057556;28;20471;-75
2021/03/22 12:31:36;;;;;;;21.60;20.13;;;;;;;;;;5057398;28;20789;-74
2021/03/22 12:34:07;;;;;;;20.27;19.17;;;;;;;;;;5057931;28;20203;-74
2021/03/22 12:36:35;;;;;;;21.42;20.23;;;;;;;;;;5057091;28;20409;-74
2021/03/22 12:39:02;;;;;;;20.70;19.60;;;;;;;;;;5057351;28;20195;-74
2021/03/22 12:41:30;;;;;;;20.33;19.23;;;;;;;;;;5056810;28;20437;-74
2021/03/22 12:43:58;;;;;;;19.93;18.80;;;;;;;;;;5057141;28;20431;-74
2021/03/22 12:46:25;;;;;;;20.80;19.60;;;;;;;;;;5057303;28;20412;-74
2021/03/22 12:48:52;;;;;;;21.13;19.83;;;;;;;;;;5057895;28;20231;-74
2021/03/22 12:51:19;;;;;;;20.87;19.70;;;;;;;;;;5056148;28;20424;-74
2021/03/22 12:53:46;;;;;;;21.37;19.87;;;;;;;;;;5055673;28;20421;-74
2021/03/22 12:56:13;;;;;;;20.30;19.20;;;;;;;;;;5056893;28;20442;-74
2021/03/22 12:58:40;;;;;;;20.70;19.50;;;;;;;;;;5056961;28;20217;-74
2021/03/22 13:01:08;;;;;;;21.53;20.30;;;;;;;;;;5056497;28;20416;-74
2021/03/22 13:03:35;;;;;;;21.00;19.80;;;;;;;;;;5056836;28;20446;-74
2021/03/22 13:06:02;;;;;;;22.23;20.67;;;;;;;;;;5056526;28;20427;-74
2021/03/22 13:08:30;;;;;;;39.23;35.67;;;;;;;;;;5057582;28;20488;-74
2021/03/22 13:10:58;;;;;;;56.40;46.17;;;;;;;;;;5055655;28;20438;-74
2021/03/22 13:13:25;;;;;;;21.50;20.20;;;;;;;;;;5056671;28;20455;-74
2021/03/22 13:15:52;;;;;;;20.70;19.60;;;;;;;;;;5056080;28;20417;-75
2021/03/22 13:18:22;;;;;;;22.43;20.83;;;;;;;;;;5056641;28;20417;-75
2021/03/22 13:20:50;;;;;;;22.20;20.90;;;;;;;;;;5057134;28;20879;-75
2021/03/22 13:23:17;;;;;;;21.53;20.23;;;;;;;;;;5056856;28;20447;-74
2021/03/22 13:25:44;;;;;;;21.00;19.80;;;;;;;;;;5057195;28;20446;-74
2021/03/22 13:28:13;;;;;;;21.30;20.07;;;;;;;;;;5056645;28;20485;-74
2021/03/22 13:30:40;;;;;;;21.60;19.95;;;;;;;;;;5057691;28;20453;-74
2021/03/22 13:33:07;;;;;;;20.90;19.70;;;;;;;;;;5058413;28;20192;-74
2021/03/22 13:35:39;;;;;;;20.37;19.27;;;;;;;;;;5060049;28;20412;-74
2021/03/22 13:38:06;;;;;;;21.10;19.90;;;;;;;;;;5058821;28;20449;-75
2021/03/22 13:40:33;;;;;;;20.97;19.67;;;;;;;;;;5057743;28;20424;-75
2021/03/22 13:43:00;;;;;;;22.27;20.97;;;;;;;;;;5056802;28;20446;-74
2021/03/22 13:45:28;;;;;;;21.57;20.37;;;;;;;;;;5057368;28;20417;-74
2021/03/22 13:47:57;;;;;;;21.20;20.10;;;;;;;;;;5056436;28;20424;-74
2021/03/22 13:50:26;;;;;;;22.10;20.90;;;;;;;;;;5060656;28;20414;-74
2021/03/22 13:52:54;;;;;;;20.80;19.50;;;;;;;;;;5056493;28;20915;-74
2021/03/22 13:55:21;;;;;;;20.45;19.30;;;;;;;;;;5055671;28;20420;-73
2021/03/22 13:57:48;;;;;;;24.40;22.80;;;;;;;;;;5055569;28;20199;-74
2021/03/22 14:00:18;;;;;;;23.60;21.90;;;;;;;;;;5055756;28;20539;-73
2021/03/22 14:02:45;;;;;;;21.80;20.40;;;;;;;;;;5055702;28;20499;-74
2021/03/22 14:05:18;;;;;;;21.00;19.80;;;;;;;;;;5054903;28;20426;-74
2021/03/22 14:07:45;;;;;;;22.40;21.00;;;;;;;;;;5055777;28;20420;-74
2021/03/22 14:10:13;;;;;;;21.00;19.80;;;;;;;;;;5055263;28;20475;-74
2021/03/22 14:12:40;;;;;;;22.83;21.33;;;;;;;;;;5054940;28;20424;-74
2021/03/22 14:15:09;;;;;;;20.87;19.67;;;;;;;;;;5055273;28;20834;-73
2021/03/22 14:17:36;;;;;;;22.47;21.17;;;;;;;;;;5055055;28;20468;-74
2021/03/22 14:20:04;;;;;;;22.20;20.90;;;;;;;;;;5055644;28;20421;-75
2021/03/22 14:22:30;;;;;;;21.70;20.40;;;;;;;;;;5055065;28;20202;-75
2021/03/22 14:24:57;;;;;;;21.83;20.53;;;;;;;;;;5053630;28;20410;-74
2021/03/22 14:27:25;;;;;;;22.13;20.57;;;;;;;;;;5056055;28;20428;-75
2021/03/22 14:29:52;;;;;;;22.03;20.63;;;;;;;;;;5056034;28;20493;-75
2021/03/22 14:32:19;;;;;;;23.63;21.80;;;;;;;;;;5056084;28;20443;-74
2021/03/22 14:34:46;;;;;;;22.17;20.77;;;;;;;;;;5056274;28;20417;-75